sensor_id;sensor_type;location;lat;lon;timestamp;P1;durP1;ratioP1;P2;durP2;ratioP2
74213;SDS011;62576;55.694;37.494;2022-10-16T00:00:35;7.43;;;4.22;;
74213;SDS011;62576;55.694;37.494;2022-10-16T00:03:06;7.80;;;4.03;;
74213;SDS011;62576;55.694;37.494;2022-10-16T00:05:37;10.45;;;4.10;;
74213;SDS011;62576;55.694;37.494;2022-10-16T00:08:11;11.33;;;4.13;;
74213;SDS011;62576;55.694;37.494;2022-10-16T00:10:42;12.48;;;4.45;;
74213;SDS011;62576;55.694;37.494;2022-10-16T00:13:12;9.15;;;4.00;;
74213;SDS011;62576;55.694;37.494;2022-10-16T00:15:42;9.20;;;4.05;;
74213;SDS011;62576;55.694;37.494;2022-10-16T00:18:12;10.75;;;4.13;;
74213;SDS011;62576;55.694;37.494;2022-10-16T00:20:42;11.10;;;4.15;;
74213;SDS011;62576;55.694;37.494;2022-10-16T00:23:13;9.32;;;3.75;;
74213;SDS011;62576;55.694;37.494;2022-10-16T00:25:43;11.40;;;4.15;;
74213;SDS011;62576;55.694;37.494;2022-10-16T00:28:13;10.30;;;3.97;;
74213;SDS011;62576;55.694;37.494;2022-10-16T00:30:43;10.20;;;4.10;;
74213;SDS011;62576;55.694;37.494;2022-10-16T00:33:13;10.55;;;4.00;;
74213;SDS011;62576;55.694;37.494;2022-10-16T00:35:43;10.40;;;3.97;;
74213;SDS011;62576;55.694;37.494;2022-10-16T00:38:15;6.82;;;3.55;;
74213;SDS011;62576;55.694;37.494;2022-10-16T00:40:45;8.55;;;4.07;;
74213;SDS011;62576;55.694;37.494;2022-10-16T00:46:05;6.78;;;3.50;;
74213;SDS011;62576;55.694;37.494;2022-10-16T00:48:39;9.48;;;3.90;;
74213;SDS011;62576;55.694;37.494;2022-10-16T00:51:10;7.90;;;3.47;;
74213;SDS011;62576;55.694;37.494;2022-10-16T00:53:42;8.80;;;3.55;;
74213;SDS011;62576;55.694;37.494;2022-10-16T00:56:12;9.10;;;3.83;;
74213;SDS011;62576;55.694;37.494;2022-10-16T00:58:42;10.10;;;3.85;;
74213;SDS011;62576;55.694;37.494;2022-10-16T01:01:12;10.07;;;3.83;;
74213;SDS011;62576;55.694;37.494;2022-10-16T01:03:42;9.43;;;4.10;;
74213;SDS011;62576;55.694;37.494;2022-10-16T01:06:16;7.88;;;3.92;;
74213;SDS011;62576;55.694;37.494;2022-10-16T01:08:53;8.57;;;3.75;;
74213;SDS011;62576;55.694;37.494;2022-10-16T01:11:44;10.80;;;4.13;;
74213;SDS011;62576;55.694;37.494;2022-10-16T01:14:24;8.65;;;3.92;;
74213;SDS011;62576;55.694;37.494;2022-10-16T01:17:01;7.80;;;4.13;;
74213;SDS011;62576;55.694;37.494;2022-10-16T01:22:14;10.13;;;3.90;;
74213;SDS011;62576;55.694;37.494;2022-10-16T01:24:48;9.38;;;3.65;;
74213;SDS011;62576;55.694;37.494;2022-10-16T01:27:20;9.60;;;4.50;;
74213;SDS011;62576;55.694;37.494;2022-10-16T01:29:56;11.23;;;4.03;;
74213;SDS011;62576;55.694;37.494;2022-10-16T01:32:32;11.20;;;4.18;;
74213;SDS011;62576;55.694;37.494;2022-10-16T01:35:07;8.63;;;3.95;;
74213;SDS011;62576;55.694;37.494;2022-10-16T01:37:42;9.52;;;3.90;;
74213;SDS011;62576;55.694;37.494;2022-10-16T01:40:18;9.75;;;3.53;;
74213;SDS011;62576;55.694;37.494;2022-10-16T01:42:52;8.27;;;4.10;;
74213;SDS011;62576;55.694;37.494;2022-10-16T01:45:26;8.77;;;4.10;;
74213;SDS011;62576;55.694;37.494;2022-10-16T01:48:00;11.13;;;3.95;;
74213;SDS011;62576;55.694;37.494;2022-10-16T01:50:33;8.38;;;3.90;;
74213;SDS011;62576;55.694;37.494;2022-10-16T01:53:08;8.90;;;3.83;;
74213;SDS011;62576;55.694;37.494;2022-10-16T01:55:41;9.80;;;3.90;;
74213;SDS011;62576;55.694;37.494;2022-10-16T01:58:16;9.20;;;4.30;;
74213;SDS011;62576;55.694;37.494;2022-10-16T02:00:46;7.13;;;3.70;;
74213;SDS011;62576;55.694;37.494;2022-10-16T02:03:18;9.02;;;4.03;;
74213;SDS011;62576;55.694;37.494;2022-10-16T02:05:47;13.27;;;4.25;;
74213;SDS011;62576;55.694;37.494;2022-10-16T02:08:21;12.88;;;4.22;;
74213;SDS011;62576;55.694;37.494;2022-10-16T02:10:54;8.80;;;3.80;;
74213;SDS011;62576;55.694;37.494;2022-10-16T02:13:27;7.80;;;4.05;;
74213;SDS011;62576;55.694;37.494;2022-10-16T02:16:02;10.00;;;4.22;;
74213;SDS011;62576;55.694;37.494;2022-10-16T02:18:32;7.50;;;3.70;;
74213;SDS011;62576;55.694;37.494;2022-10-16T02:21:05;8.52;;;4.03;;
74213;SDS011;62576;55.694;37.494;2022-10-16T02:23:41;8.85;;;3.80;;
74213;SDS011;62576;55.694;37.494;2022-10-16T02:26:17;9.48;;;3.80;;
74213;SDS011;62576;55.694;37.494;2022-10-16T02:28:57;8.00;;;3.83;;
74213;SDS011;62576;55.694;37.494;2022-10-16T02:31:32;7.50;;;3.85;;
74213;SDS011;62576;55.694;37.494;2022-10-16T02:34:07;9.10;;;4.28;;
74213;SDS011;62576;55.694;37.494;2022-10-16T02:36:40;8.45;;;3.70;;
74213;SDS011;62576;55.694;37.494;2022-10-16T02:39:12;10.95;;;4.00;;
74213;SDS011;62576;55.694;37.494;2022-10-16T02:41:43;11.23;;;3.83;;
74213;SDS011;62576;55.694;37.494;2022-10-16T02:44:15;9.88;;;4.00;;
74213;SDS011;62576;55.694;37.494;2022-10-16T02:46:44;11.82;;;4.10;;
74213;SDS011;62576;55.694;37.494;2022-10-16T02:49:14;9.43;;;3.83;;
74213;SDS011;62576;55.694;37.494;2022-10-16T02:51:46;8.10;;;3.80;;
74213;SDS011;62576;55.694;37.494;2022-10-16T02:54:16;9.18;;;4.22;;
74213;SDS011;62576;55.694;37.494;2022-10-16T02:56:46;7.90;;;3.60;;
74213;SDS011;62576;55.694;37.494;2022-10-16T02:59:17;11.13;;;4.38;;
74213;SDS011;62576;55.694;37.494;2022-10-16T03:01:47;9.20;;;3.83;;
74213;SDS011;62576;55.694;37.494;2022-10-16T03:04:17;7.22;;;3.53;;
74213;SDS011;62576;55.694;37.494;2022-10-16T03:06:47;8.20;;;3.60;;
74213;SDS011;62576;55.694;37.494;2022-10-16T03:09:17;10.98;;;4.35;;
74213;SDS011;62576;55.694;37.494;2022-10-16T03:11:47;10.85;;;3.90;;
74213;SDS011;62576;55.694;37.494;2022-10-16T03:14:18;9.05;;;4.05;;
74213;SDS011;62576;55.694;37.494;2022-10-16T03:16:48;9.07;;;4.00;;
74213;SDS011;62576;55.694;37.494;2022-10-16T03:19:18;9.38;;;3.80;;
74213;SDS011;62576;55.694;37.494;2022-10-16T03:21:48;8.77;;;3.95;;
74213;SDS011;62576;55.694;37.494;2022-10-16T03:24:18;8.60;;;3.83;;
74213;SDS011;62576;55.694;37.494;2022-10-16T03:26:48;10.73;;;4.22;;
74213;SDS011;62576;55.694;37.494;2022-10-16T03:29:20;12.00;;;4.22;;
74213;SDS011;62576;55.694;37.494;2022-10-16T03:31:49;8.10;;;4.07;;
74213;SDS011;62576;55.694;37.494;2022-10-16T03:34:19;13.77;;;4.38;;
74213;SDS011;62576;55.694;37.494;2022-10-16T03:36:49;7.90;;;3.95;;
74213;SDS011;62576;55.694;37.494;2022-10-16T03:39:19;9.77;;;4.13;;
74213;SDS011;62576;55.694;37.494;2022-10-16T03:41:49;9.13;;;3.80;;
74213;SDS011;62576;55.694;37.494;2022-10-16T03:44:21;9.65;;;3.67;;
74213;SDS011;62576;55.694;37.494;2022-10-16T03:46:50;9.68;;;4.22;;
74213;SDS011;62576;55.694;37.494;2022-10-16T03:49:21;10.45;;;4.10;;
74213;SDS011;62576;55.694;37.494;2022-10-16T03:51:50;13.60;;;4.70;;
74213;SDS011;62576;55.694;37.494;2022-10-16T03:54:20;10.93;;;4.20;;
74213;SDS011;62576;55.694;37.494;2022-10-16T03:56:51;8.57;;;4.28;;
74213;SDS011;62576;55.694;37.494;2022-10-16T03:59:22;8.75;;;4.28;;
74213;SDS011;62576;55.694;37.494;2022-10-16T04:01:52;11.18;;;4.38;;
74213;SDS011;62576;55.694;37.494;2022-10-16T04:04:22;8.55;;;4.30;;
74213;SDS011;62576;55.694;37.494;2022-10-16T04:06:53;11.68;;;3.92;;
74213;SDS011;62576;55.694;37.494;2022-10-16T04:09:23;11.20;;;4.22;;
74213;SDS011;62576;55.694;37.494;2022-10-16T04:11:53;12.63;;;4.25;;
74213;SDS011;62576;55.694;37.494;2022-10-16T04:14:24;9.38;;;4.50;;
74213;SDS011;62576;55.694;37.494;2022-10-16T04:16:54;10.55;;;4.15;;
74213;SDS011;62576;55.694;37.494;2022-10-16T04:19:24;10.75;;;4.07;;
74213;SDS011;62576;55.694;37.494;2022-10-16T04:21:54;8.00;;;4.20;;
74213;SDS011;62576;55.694;37.494;2022-10-16T04:24:24;9.20;;;4.30;;
74213;SDS011;62576;55.694;37.494;2022-10-16T04:26:54;14.00;;;4.88;;
74213;SDS011;62576;55.694;37.494;2022-10-16T04:29:25;11.27;;;4.50;;
74213;SDS011;62576;55.694;37.494;2022-10-16T04:31:55;13.05;;;4.60;;
74213;SDS011;62576;55.694;37.494;2022-10-16T04:34:25;15.40;;;6.05;;
74213;SDS011;62576;55.694;37.494;2022-10-16T04:36:55;9.77;;;4.10;;
74213;SDS011;62576;55.694;37.494;2022-10-16T04:39:25;13.27;;;4.20;;
74213;SDS011;62576;55.694;37.494;2022-10-16T04:41:55;10.30;;;3.88;;
74213;SDS011;62576;55.694;37.494;2022-10-16T04:44:27;10.43;;;4.38;;
74213;SDS011;62576;55.694;37.494;2022-10-16T04:46:57;8.25;;;3.78;;
74213;SDS011;62576;55.694;37.494;2022-10-16T04:49:27;12.30;;;4.20;;
74213;SDS011;62576;55.694;37.494;2022-10-16T04:51:57;11.18;;;4.22;;
74213;SDS011;62576;55.694;37.494;2022-10-16T04:54:27;9.10;;;4.07;;
74213;SDS011;62576;55.694;37.494;2022-10-16T04:56:57;9.38;;;4.20;;
74213;SDS011;62576;55.694;37.494;2022-10-16T04:59:28;7.00;;;3.88;;
74213;SDS011;62576;55.694;37.494;2022-10-16T05:01:58;26.65;;;10.77;;
74213;SDS011;62576;55.694;37.494;2022-10-16T05:04:28;13.95;;;5.32;;
74213;SDS011;62576;55.694;37.494;2022-10-16T05:06:57;9.93;;;4.85;;
74213;SDS011;62576;55.694;37.494;2022-10-16T05:09:27;8.50;;;4.30;;
74213;SDS011;62576;55.694;37.494;2022-10-16T05:11:57;8.82;;;4.07;;
74213;SDS011;62576;55.694;37.494;2022-10-16T05:14:29;12.73;;;5.35;;
74213;SDS011;62576;55.694;37.494;2022-10-16T05:16:59;11.80;;;4.47;;
74213;SDS011;62576;55.694;37.494;2022-10-16T05:19:29;11.25;;;4.85;;
74213;SDS011;62576;55.694;37.494;2022-10-16T05:21:59;10.85;;;4.85;;
74213;SDS011;62576;55.694;37.494;2022-10-16T05:24:29;11.45;;;4.68;;
74213;SDS011;62576;55.694;37.494;2022-10-16T05:26:59;10.02;;;4.38;;
74213;SDS011;62576;55.694;37.494;2022-10-16T05:29:30;11.00;;;5.07;;
74213;SDS011;62576;55.694;37.494;2022-10-16T05:32:00;11.30;;;4.75;;
74213;SDS011;62576;55.694;37.494;2022-10-16T05:34:30;11.23;;;4.63;;
74213;SDS011;62576;55.694;37.494;2022-10-16T05:37:00;13.13;;;4.88;;
74213;SDS011;62576;55.694;37.494;2022-10-16T05:39:30;10.95;;;5.13;;
74213;SDS011;62576;55.694;37.494;2022-10-16T05:42:00;13.48;;;5.10;;
74213;SDS011;62576;55.694;37.494;2022-10-16T05:44:32;12.00;;;5.03;;
74213;SDS011;62576;55.694;37.494;2022-10-16T05:47:02;13.57;;;5.03;;
74213;SDS011;62576;55.694;37.494;2022-10-16T05:49:32;13.55;;;5.35;;
74213;SDS011;62576;55.694;37.494;2022-10-16T05:52:02;14.30;;;5.50;;
74213;SDS011;62576;55.694;37.494;2022-10-16T05:54:32;13.57;;;5.18;;
74213;SDS011;62576;55.694;37.494;2022-10-16T05:57:02;13.50;;;5.60;;
74213;SDS011;62576;55.694;37.494;2022-10-16T05:59:35;12.75;;;4.90;;
74213;SDS011;62576;55.694;37.494;2022-10-16T06:02:05;10.40;;;5.07;;
74213;SDS011;62576;55.694;37.494;2022-10-16T06:04:35;11.32;;;5.07;;
74213;SDS011;62576;55.694;37.494;2022-10-16T06:07:05;17.67;;;5.55;;
74213;SDS011;62576;55.694;37.494;2022-10-16T06:09:34;13.27;;;5.35;;
74213;SDS011;62576;55.694;37.494;2022-10-16T06:12:04;10.77;;;5.03;;
74213;SDS011;62576;55.694;37.494;2022-10-16T06:14:36;19.83;;;6.13;;
74213;SDS011;62576;55.694;37.494;2022-10-16T06:17:06;15.95;;;5.70;;
74213;SDS011;62576;55.694;37.494;2022-10-16T06:19:36;13.13;;;5.32;;
74213;SDS011;62576;55.694;37.494;2022-10-16T06:22:06;15.70;;;5.88;;
74213;SDS011;62576;55.694;37.494;2022-10-16T06:24:36;12.45;;;4.93;;
74213;SDS011;62576;55.694;37.494;2022-10-16T06:27:06;11.35;;;5.13;;
74213;SDS011;62576;55.694;37.494;2022-10-16T06:29:38;14.52;;;5.55;;
74213;SDS011;62576;55.694;37.494;2022-10-16T06:32:08;10.98;;;4.97;;
74213;SDS011;62576;55.694;37.494;2022-10-16T06:34:38;19.05;;;5.47;;
74213;SDS011;62576;55.694;37.494;2022-10-16T06:37:09;12.63;;;5.45;;
74213;SDS011;62576;55.694;37.494;2022-10-16T06:39:39;13.50;;;5.50;;
74213;SDS011;62576;55.694;37.494;2022-10-16T06:42:09;15.80;;;5.80;;
74213;SDS011;62576;55.694;37.494;2022-10-16T06:44:40;15.05;;;5.30;;
74213;SDS011;62576;55.694;37.494;2022-10-16T06:47:10;9.77;;;5.15;;
74213;SDS011;62576;55.694;37.494;2022-10-16T06:49:40;14.88;;;5.40;;
74213;SDS011;62576;55.694;37.494;2022-10-16T06:52:13;15.02;;;5.55;;
74213;SDS011;62576;55.694;37.494;2022-10-16T06:54:43;14.77;;;5.97;;
74213;SDS011;62576;55.694;37.494;2022-10-16T06:57:13;16.98;;;5.63;;
74213;SDS011;62576;55.694;37.494;2022-10-16T06:59:41;17.50;;;5.88;;
74213;SDS011;62576;55.694;37.494;2022-10-16T07:02:11;19.13;;;5.53;;
74213;SDS011;62576;55.694;37.494;2022-10-16T07:04:41;14.00;;;5.22;;
74213;SDS011;62576;55.694;37.494;2022-10-16T07:07:11;14.10;;;5.00;;
74213;SDS011;62576;55.694;37.494;2022-10-16T07:09:41;14.32;;;5.28;;
74213;SDS011;62576;55.694;37.494;2022-10-16T07:12:14;12.05;;;5.72;;
74213;SDS011;62576;55.694;37.494;2022-10-16T07:14:45;12.45;;;5.35;;
74213;SDS011;62576;55.694;37.494;2022-10-16T07:17:18;18.73;;;6.15;;
74213;SDS011;62576;55.694;37.494;2022-10-16T07:19:48;14.32;;;5.63;;
74213;SDS011;62576;55.694;37.494;2022-10-16T07:22:21;14.88;;;5.40;;
74213;SDS011;62576;55.694;37.494;2022-10-16T07:24:51;14.32;;;5.45;;
74213;SDS011;62576;55.694;37.494;2022-10-16T07:27:21;18.15;;;5.40;;
74213;SDS011;62576;55.694;37.494;2022-10-16T07:29:54;12.57;;;5.45;;
74213;SDS011;62576;55.694;37.494;2022-10-16T07:32:24;17.25;;;5.78;;
74213;SDS011;62576;55.694;37.494;2022-10-16T07:34:54;14.55;;;5.53;;
74213;SDS011;62576;55.694;37.494;2022-10-16T07:37:24;16.75;;;5.90;;
74213;SDS011;62576;55.694;37.494;2022-10-16T07:39:54;18.73;;;6.25;;
74213;SDS011;62576;55.694;37.494;2022-10-16T07:42:27;16.55;;;5.63;;
74213;SDS011;62576;55.694;37.494;2022-10-16T07:44:58;11.77;;;5.53;;
74213;SDS011;62576;55.694;37.494;2022-10-16T07:47:28;15.10;;;5.63;;
74213;SDS011;62576;55.694;37.494;2022-10-16T07:49:58;17.15;;;5.88;;
74213;SDS011;62576;55.694;37.494;2022-10-16T07:52:28;13.68;;;5.30;;
74213;SDS011;62576;55.694;37.494;2022-10-16T07:54:58;12.73;;;5.38;;
74213;SDS011;62576;55.694;37.494;2022-10-16T07:57:31;14.70;;;5.68;;
74213;SDS011;62576;55.694;37.494;2022-10-16T08:00:03;15.93;;;5.80;;
74213;SDS011;62576;55.694;37.494;2022-10-16T08:02:34;25.02;;;6.63;;
74213;SDS011;62576;55.694;37.494;2022-10-16T08:05:01;20.10;;;5.07;;
74213;SDS011;62576;55.694;37.494;2022-10-16T08:07:30;19.13;;;5.50;;
74213;SDS011;62576;55.694;37.494;2022-10-16T08:10:00;11.93;;;5.32;;
74213;SDS011;62576;55.694;37.494;2022-10-16T08:12:31;16.88;;;5.50;;
74213;SDS011;62576;55.694;37.494;2022-10-16T08:15:03;19.98;;;5.30;;
74213;SDS011;62576;55.694;37.494;2022-10-16T08:17:33;12.93;;;5.03;;
74213;SDS011;62576;55.694;37.494;2022-10-16T08:20:08;13.35;;;4.63;;
74213;SDS011;62576;55.694;37.494;2022-10-16T08:22:39;10.70;;;4.28;;
74213;SDS011;62576;55.694;37.494;2022-10-16T08:25:17;10.50;;;4.45;;
74213;SDS011;62576;55.694;37.494;2022-10-16T08:27:47;10.60;;;4.50;;
74213;SDS011;62576;55.694;37.494;2022-10-16T08:30:19;11.10;;;4.13;;
74213;SDS011;62576;55.694;37.494;2022-10-16T08:32:52;14.73;;;4.68;;
74213;SDS011;62576;55.694;37.494;2022-10-16T08:35:22;15.50;;;5.13;;
74213;SDS011;62576;55.694;37.494;2022-10-16T08:37:52;15.45;;;5.40;;
74213;SDS011;62576;55.694;37.494;2022-10-16T08:40:25;8.45;;;4.00;;
74213;SDS011;62576;55.694;37.494;2022-10-16T08:43:03;11.80;;;3.95;;
74213;SDS011;62576;55.694;37.494;2022-10-16T08:45:49;7.45;;;4.07;;
74213;SDS011;62576;55.694;37.494;2022-10-16T08:48:34;12.55;;;3.97;;
74213;SDS011;62576;55.694;37.494;2022-10-16T08:51:08;15.48;;;3.97;;
74213;SDS011;62576;55.694;37.494;2022-10-16T08:53:46;11.35;;;3.88;;
74213;SDS011;62576;55.694;37.494;2022-10-16T08:56:20;9.52;;;3.80;;
74213;SDS011;62576;55.694;37.494;2022-10-16T08:58:53;14.98;;;3.85;;
74213;SDS011;62576;55.694;37.494;2022-10-16T09:01:28;23.50;;;4.50;;
74213;SDS011;62576;55.694;37.494;2022-10-16T09:04:20;9.93;;;3.83;;
74213;SDS011;62576;55.694;37.494;2022-10-16T09:07:08;7.95;;;3.40;;
74213;SDS011;62576;55.694;37.494;2022-10-16T09:12:46;9.35;;;3.53;;
74213;SDS011;62576;55.694;37.494;2022-10-16T09:15:27;8.65;;;3.15;;
74213;SDS011;62576;55.694;37.494;2022-10-16T09:18:03;9.80;;;3.10;;
74213;SDS011;62576;55.694;37.494;2022-10-16T09:20:42;9.88;;;3.20;;
74213;SDS011;62576;55.694;37.494;2022-10-16T09:23:19;6.40;;;3.00;;
74213;SDS011;62576;55.694;37.494;2022-10-16T09:25:54;8.63;;;3.10;;
74213;SDS011;62576;55.694;37.494;2022-10-16T09:28:28;7.47;;;3.47;;
74213;SDS011;62576;55.694;37.494;2022-10-16T09:30:58;10.43;;;3.53;;
74213;SDS011;62576;55.694;37.494;2022-10-16T09:33:33;8.00;;;2.97;;
74213;SDS011;62576;55.694;37.494;2022-10-16T09:36:06;9.10;;;3.00;;
74213;SDS011;62576;55.694;37.494;2022-10-16T09:38:36;7.45;;;2.88;;
74213;SDS011;62576;55.694;37.494;2022-10-16T09:41:13;8.20;;;2.83;;
74213;SDS011;62576;55.694;37.494;2022-10-16T09:43:47;6.40;;;2.75;;
74213;SDS011;62576;55.694;37.494;2022-10-16T09:46:27;7.63;;;2.97;;
74213;SDS011;62576;55.694;37.494;2022-10-16T09:49:00;9.13;;;3.28;;
74213;SDS011;62576;55.694;37.494;2022-10-16T09:51:33;8.85;;;3.35;;
74213;SDS011;62576;55.694;37.494;2022-10-16T09:54:12;10.57;;;3.20;;
74213;SDS011;62576;55.694;37.494;2022-10-16T09:56:44;9.02;;;2.97;;
74213;SDS011;62576;55.694;37.494;2022-10-16T09:59:17;6.45;;;3.00;;
74213;SDS011;62576;55.694;37.494;2022-10-16T10:01:49;11.30;;;3.23;;
74213;SDS011;62576;55.694;37.494;2022-10-16T10:04:23;7.78;;;3.13;;
74213;SDS011;62576;55.694;37.494;2022-10-16T10:06:54;6.35;;;2.85;;
74213;SDS011;62576;55.694;37.494;2022-10-16T10:09:26;6.07;;;3.38;;
74213;SDS011;62576;55.694;37.494;2022-10-16T10:14:31;8.02;;;3.25;;
74213;SDS011;62576;55.694;37.494;2022-10-16T10:19:53;6.80;;;3.13;;
74213;SDS011;62576;55.694;37.494;2022-10-16T10:22:26;5.85;;;3.05;;
74213;SDS011;62576;55.694;37.494;2022-10-16T10:25:01;6.85;;;3.00;;
74213;SDS011;62576;55.694;37.494;2022-10-16T10:27:48;7.35;;;3.17;;
74213;SDS011;62576;55.694;37.494;2022-10-16T10:30:29;16.33;;;3.22;;
74213;SDS011;62576;55.694;37.494;2022-10-16T10:33:18;12.38;;;3.55;;
74213;SDS011;62576;55.694;37.494;2022-10-16T10:35:56;119.88;;;9.85;;
74213;SDS011;62576;55.694;37.494;2022-10-16T10:38:38;7.43;;;2.63;;
74213;SDS011;62576;55.694;37.494;2022-10-16T10:41:19;7.53;;;2.92;;
74213;SDS011;62576;55.694;37.494;2022-10-16T10:44:16;8.82;;;3.22;;
74213;SDS011;62576;55.694;37.494;2022-10-16T10:46:56;8.15;;;3.20;;
74213;SDS011;62576;55.694;37.494;2022-10-16T10:49:34;6.70;;;3.20;;
74213;SDS011;62576;55.694;37.494;2022-10-16T10:52:27;7.28;;;3.22;;
74213;SDS011;62576;55.694;37.494;2022-10-16T10:55:09;6.95;;;3.10;;
74213;SDS011;62576;55.694;37.494;2022-10-16T10:57:56;6.93;;;3.45;;
74213;SDS011;62576;55.694;37.494;2022-10-16T11:00:44;5.47;;;2.90;;
74213;SDS011;62576;55.694;37.494;2022-10-16T11:03:29;7.70;;;3.10;;
74213;SDS011;62576;55.694;37.494;2022-10-16T11:06:04;7.25;;;3.30;;
74213;SDS011;62576;55.694;37.494;2022-10-16T11:08:39;5.38;;;3.50;;
74213;SDS011;62576;55.694;37.494;2022-10-16T11:11:14;6.57;;;3.42;;
74213;SDS011;62576;55.694;37.494;2022-10-16T11:13:51;5.63;;;3.08;;
74213;SDS011;62576;55.694;37.494;2022-10-16T11:16:28;6.70;;;2.90;;
74213;SDS011;62576;55.694;37.494;2022-10-16T11:19:03;7.97;;;3.30;;
74213;SDS011;62576;55.694;37.494;2022-10-16T11:21:44;5.72;;;2.85;;
74213;SDS011;62576;55.694;37.494;2022-10-16T11:24:22;9.23;;;3.25;;
74213;SDS011;62576;55.694;37.494;2022-10-16T11:27:04;8.18;;;2.92;;
74213;SDS011;62576;55.694;37.494;2022-10-16T11:29:43;5.10;;;2.90;;
74213;SDS011;62576;55.694;37.494;2022-10-16T11:32:20;6.88;;;3.05;;
74213;SDS011;62576;55.694;37.494;2022-10-16T11:34:57;6.60;;;3.30;;
74213;SDS011;62576;55.694;37.494;2022-10-16T11:37:32;5.22;;;3.17;;
74213;SDS011;62576;55.694;37.494;2022-10-16T11:40:14;12.75;;;3.22;;
74213;SDS011;62576;55.694;37.494;2022-10-16T11:42:50;7.05;;;3.13;;
74213;SDS011;62576;55.694;37.494;2022-10-16T11:45:27;8.50;;;3.55;;
74213;SDS011;62576;55.694;37.494;2022-10-16T11:48:05;7.25;;;3.20;;
74213;SDS011;62576;55.694;37.494;2022-10-16T11:50:46;5.05;;;3.13;;
74213;SDS011;62576;55.694;37.494;2022-10-16T11:53:23;9.68;;;3.40;;
74213;SDS011;62576;55.694;37.494;2022-10-16T11:56:06;10.07;;;3.22;;
74213;SDS011;62576;55.694;37.494;2022-10-16T11:58:37;9.13;;;3.17;;
74213;SDS011;62576;55.694;37.494;2022-10-16T12:01:16;8.27;;;3.22;;
74213;SDS011;62576;55.694;37.494;2022-10-16T12:03:54;13.27;;;3.83;;
74213;SDS011;62576;55.694;37.494;2022-10-16T12:06:33;8.77;;;3.50;;
74213;SDS011;62576;55.694;37.494;2022-10-16T12:09:09;6.93;;;3.13;;
74213;SDS011;62576;55.694;37.494;2022-10-16T12:11:51;10.50;;;3.17;;
74213;SDS011;62576;55.694;37.494;2022-10-16T12:14:33;7.35;;;3.40;;
74213;SDS011;62576;55.694;37.494;2022-10-16T12:17:23;6.18;;;3.30;;
74213;SDS011;62576;55.694;37.494;2022-10-16T12:19:59;8.40;;;3.20;;
74213;SDS011;62576;55.694;37.494;2022-10-16T12:22:30;6.75;;;3.00;;
74213;SDS011;62576;55.694;37.494;2022-10-16T12:25:02;6.53;;;3.60;;
74213;SDS011;62576;55.694;37.494;2022-10-16T12:27:34;8.75;;;3.55;;
74213;SDS011;62576;55.694;37.494;2022-10-16T12:30:04;6.53;;;3.20;;
74213;SDS011;62576;55.694;37.494;2022-10-16T12:32:37;9.27;;;3.20;;
74213;SDS011;62576;55.694;37.494;2022-10-16T12:35:16;8.30;;;3.15;;
74213;SDS011;62576;55.694;37.494;2022-10-16T12:37:49;6.97;;;3.15;;
74213;SDS011;62576;55.694;37.494;2022-10-16T12:40:25;7.22;;;3.45;;
74213;SDS011;62576;55.694;37.494;2022-10-16T12:43:10;8.98;;;3.53;;
74213;SDS011;62576;55.694;37.494;2022-10-16T12:45:42;6.75;;;3.45;;
74213;SDS011;62576;55.694;37.494;2022-10-16T12:48:20;9.30;;;3.70;;
74213;SDS011;62576;55.694;37.494;2022-10-16T12:50:51;7.57;;;3.38;;
74213;SDS011;62576;55.694;37.494;2022-10-16T12:53:21;12.95;;;3.40;;
74213;SDS011;62576;55.694;37.494;2022-10-16T12:55:56;7.80;;;3.50;;
74213;SDS011;62576;55.694;37.494;2022-10-16T12:58:37;8.48;;;3.25;;
74213;SDS011;62576;55.694;37.494;2022-10-16T13:01:34;8.85;;;3.25;;
74213;SDS011;62576;55.694;37.494;2022-10-16T13:04:18;6.72;;;3.25;;
74213;SDS011;62576;55.694;37.494;2022-10-16T13:07:03;7.63;;;2.90;;
74213;SDS011;62576;55.694;37.494;2022-10-16T13:09:48;9.02;;;3.70;;
74213;SDS011;62576;55.694;37.494;2022-10-16T13:12:30;11.38;;;3.47;;
74213;SDS011;62576;55.694;37.494;2022-10-16T13:15:41;11.90;;;3.30;;
74213;SDS011;62576;55.694;37.494;2022-10-16T13:18:23;6.43;;;3.33;;
74213;SDS011;62576;55.694;37.494;2022-10-16T13:21:02;11.13;;;3.80;;
74213;SDS011;62576;55.694;37.494;2022-10-16T13:23:43;7.47;;;2.97;;
74213;SDS011;62576;55.694;37.494;2022-10-16T13:26:24;10.15;;;4.63;;
74213;SDS011;62576;55.694;37.494;2022-10-16T13:29:04;9.98;;;3.47;;
74213;SDS011;62576;55.694;37.494;2022-10-16T13:31:36;6.47;;;3.10;;
74213;SDS011;62576;55.694;37.494;2022-10-16T13:34:12;9.32;;;3.45;;
74213;SDS011;62576;55.694;37.494;2022-10-16T13:36:47;6.35;;;3.15;;
74213;SDS011;62576;55.694;37.494;2022-10-16T13:39:21;5.82;;;3.38;;
74213;SDS011;62576;55.694;37.494;2022-10-16T13:41:58;9.40;;;3.42;;
74213;SDS011;62576;55.694;37.494;2022-10-16T13:44:35;8.45;;;3.42;;
74213;SDS011;62576;55.694;37.494;2022-10-16T13:47:11;7.28;;;3.53;;
74213;SDS011;62576;55.694;37.494;2022-10-16T13:49:45;9.30;;;3.40;;
74213;SDS011;62576;55.694;37.494;2022-10-16T13:52:28;8.57;;;3.40;;
74213;SDS011;62576;55.694;37.494;2022-10-16T13:55:04;7.93;;;3.35;;
74213;SDS011;62576;55.694;37.494;2022-10-16T13:57:42;9.48;;;3.50;;
74213;SDS011;62576;55.694;37.494;2022-10-16T14:00:19;8.18;;;3.47;;
74213;SDS011;62576;55.694;37.494;2022-10-16T14:02:55;11.95;;;3.63;;
74213;SDS011;62576;55.694;37.494;2022-10-16T14:05:30;15.05;;;3.72;;
74213;SDS011;62576;55.694;37.494;2022-10-16T14:08:00;8.27;;;3.80;;
74213;SDS011;62576;55.694;37.494;2022-10-16T14:10:34;10.15;;;3.33;;
74213;SDS011;62576;55.694;37.494;2022-10-16T14:13:05;7.45;;;3.20;;
74213;SDS011;62576;55.694;37.494;2022-10-16T14:15:36;7.47;;;3.50;;
74213;SDS011;62576;55.694;37.494;2022-10-16T14:18:13;11.05;;;3.60;;
74213;SDS011;62576;55.694;37.494;2022-10-16T14:20:50;11.68;;;3.63;;
74213;SDS011;62576;55.694;37.494;2022-10-16T14:23:21;11.35;;;3.80;;
74213;SDS011;62576;55.694;37.494;2022-10-16T14:25:54;11.98;;;3.90;;
74213;SDS011;62576;55.694;37.494;2022-10-16T14:28:35;8.95;;;3.50;;
74213;SDS011;62576;55.694;37.494;2022-10-16T14:31:22;10.73;;;3.50;;
74213;SDS011;62576;55.694;37.494;2022-10-16T14:33:57;8.93;;;3.65;;
74213;SDS011;62576;55.694;37.494;2022-10-16T14:36:27;14.73;;;3.97;;
74213;SDS011;62576;55.694;37.494;2022-10-16T14:39:01;13.77;;;4.15;;
74213;SDS011;62576;55.694;37.494;2022-10-16T14:41:33;10.52;;;4.53;;
74213;SDS011;62576;55.694;37.494;2022-10-16T14:44:13;14.52;;;5.00;;
74213;SDS011;62576;55.694;37.494;2022-10-16T14:46:44;10.82;;;4.72;;
74213;SDS011;62576;55.694;37.494;2022-10-16T14:49:16;13.73;;;4.82;;
74213;SDS011;62576;55.694;37.494;2022-10-16T14:51:51;10.38;;;5.03;;
74213;SDS011;62576;55.694;37.494;2022-10-16T14:54:24;14.63;;;5.63;;
74213;SDS011;62576;55.694;37.494;2022-10-16T14:56:54;16.08;;;5.70;;
74213;SDS011;62576;55.694;37.494;2022-10-16T14:59:28;15.73;;;5.10;;
74213;SDS011;62576;55.694;37.494;2022-10-16T15:02:01;13.40;;;5.50;;
74213;SDS011;62576;55.694;37.494;2022-10-16T15:04:47;14.85;;;5.60;;
74213;SDS011;62576;55.694;37.494;2022-10-16T15:07:18;17.15;;;5.40;;
74213;SDS011;62576;55.694;37.494;2022-10-16T15:09:48;14.73;;;5.72;;
74213;SDS011;62576;55.694;37.494;2022-10-16T15:12:18;14.63;;;5.07;;
74213;SDS011;62576;55.694;37.494;2022-10-16T15:14:49;14.27;;;5.80;;
74213;SDS011;62576;55.694;37.494;2022-10-16T15:17:22;16.65;;;6.00;;
74213;SDS011;62576;55.694;37.494;2022-10-16T15:19:54;10.90;;;5.18;;